Lehigh Acres, Florida
Current Conditions -  °F | °C
As of 4:53 PM on Friday 24 Oct 2014 (Local Time) from KRSW Reporting Station
Few Clouds Few Clouds  
Wind Chill: 83°   Ceiling: Unl
Heat Index: 83°   Visibility: 10mi
Dew Point: 61°   Wind: 13mph
Humidity: 47%   Direction: 40°NE
Pressure: 29.85"   Gusts: NA
Location:  26.61°N, 81.64°W
Report Text: KRSW 242053Z 04011KT 10SM FEW055 28/16 A2985 RMK AO2 SLP104 T02830161 55013
Loading
Personal Weather Stations






























Interactive Weather Map
Tropical Storm Tracking
New forecast layout! Learn more

10-Day Weather Forecast

Advertisements
Track Severe Weather on mobile